Cornettsville, Kentucky
Current Conditions -  °F | °C
As of 3:55 PM on Tuesday 21 Oct 2014 (Local Time) from KI35 Reporting Station
Overcast Overcast  
Wind Chill: 59°   Ceiling: 6000
Heat Index: 59°   Visibility: 10mi
Dew Point: 39°   Wind: 9mph
Humidity: 48%   Direction: 330°NNW
Pressure: 30.01"   Gusts: 22mph
Location:  37.13°N, 83.08°W
Report Text: KI35 211955Z AUTO 33008G19KT 10SM SCT042 OVC060 15/04 A3001 RMK AO1
Loading
Personal Weather Stations






























Interactive Weather Map
Tropical Storm Tracking
New forecast layout! Learn more

10-Day Weather Forecast

Advertisements
Track Severe Weather on mobile